sensor_id;sensor_type;location;lat;lon;timestamp;P1;durP1;ratioP1;P2;durP2;ratioP2
18732;SDS011;9495;51.210;2.934;2024-01-06T00:02:12;0.10;;;0.10;;
18732;SDS011;9495;51.210;2.934;2024-01-06T00:04:40;0.00;;;0.00;;
18732;SDS011;9495;51.210;2.934;2024-01-06T00:07:09;0.00;;;0.00;;
18732;SDS011;9495;51.210;2.934;2024-01-06T00:09:39;0.10;;;0.10;;
18732;SDS011;9495;51.210;2.934;2024-01-06T00:12:07;0.00;;;0.00;;
18732;SDS011;9495;51.210;2.934;2024-01-06T00:14:36;0.00;;;0.00;;
18732;SDS011;9495;51.210;2.934;2024-01-06T00:17:04;0.10;;;0.10;;
18732;SDS011;9495;51.210;2.934;2024-01-06T00:19:33;0.00;;;0.00;;
18732;SDS011;9495;51.210;2.934;2024-01-06T00:22:02;0.00;;;0.00;;
18732;SDS011;9495;51.210;2.934;2024-01-06T00:24:31;0.10;;;0.10;;
18732;SDS011;9495;51.210;2.934;2024-01-06T00:27:00;0.10;;;0.10;;
18732;SDS011;9495;51.210;2.934;2024-01-06T00:29:29;0.00;;;0.00;;
18732;SDS011;9495;51.210;2.934;2024-01-06T00:31:58;0.00;;;0.00;;
18732;SDS011;9495;51.210;2.934;2024-01-06T00:34:26;0.10;;;0.10;;
18732;SDS011;9495;51.210;2.934;2024-01-06T00:36:55;0.00;;;0.00;;
18732;SDS011;9495;51.210;2.934;2024-01-06T00:39:24;0.10;;;0.10;;
18732;SDS011;9495;51.210;2.934;2024-01-06T00:41:52;0.10;;;0.10;;
18732;SDS011;9495;51.210;2.934;2024-01-06T00:44:22;0.10;;;0.10;;
18732;SDS011;9495;51.210;2.934;2024-01-06T00:46:50;0.10;;;0.10;;
18732;SDS011;9495;51.210;2.934;2024-01-06T00:49:19;0.10;;;0.10;;
18732;SDS011;9495;51.210;2.934;2024-01-06T00:51:48;0.00;;;0.00;;
18732;SDS011;9495;51.210;2.934;2024-01-06T00:54:17;0.00;;;0.00;;
18732;SDS011;9495;51.210;2.934;2024-01-06T00:56:45;4.30;;;0.90;;
18732;SDS011;9495;51.210;2.934;2024-01-06T00:59:14;12.83;;;1.63;;
18732;SDS011;9495;51.210;2.934;2024-01-06T01:01:44;7.53;;;1.37;;
18732;SDS011;9495;51.210;2.934;2024-01-06T01:04:12;8.97;;;1.43;;
18732;SDS011;9495;51.210;2.934;2024-01-06T01:06:41;7.83;;;1.30;;
18732;SDS011;9495;51.210;2.934;2024-01-06T01:09:10;11.03;;;1.40;;
18732;SDS011;9495;51.210;2.934;2024-01-06T01:11:40;15.33;;;1.77;;
18732;SDS011;9495;51.210;2.934;2024-01-06T01:14:09;7.70;;;1.40;;
18732;SDS011;9495;51.210;2.934;2024-01-06T01:16:38;6.63;;;1.20;;
18732;SDS011;9495;51.210;2.934;2024-01-06T01:19:07;4.80;;;0.97;;
18732;SDS011;9495;51.210;2.934;2024-01-06T01:21:36;8.43;;;1.37;;
18732;SDS011;9495;51.210;2.934;2024-01-06T01:24:04;7.47;;;1.30;;
18732;SDS011;9495;51.210;2.934;2024-01-06T01:26:33;7.67;;;1.20;;
18732;SDS011;9495;51.210;2.934;2024-01-06T01:29:02;9.93;;;1.57;;
18732;SDS011;9495;51.210;2.934;2024-01-06T01:31:30;10.10;;;1.30;;
18732;SDS011;9495;51.210;2.934;2024-01-06T01:33:59;10.47;;;1.43;;
18732;SDS011;9495;51.210;2.934;2024-01-06T01:36:29;7.53;;;1.43;;
18732;SDS011;9495;51.210;2.934;2024-01-06T01:38:57;5.67;;;1.27;;
18732;SDS011;9495;51.210;2.934;2024-01-06T01:41:26;11.53;;;1.30;;
18732;SDS011;9495;51.210;2.934;2024-01-06T01:43:54;10.77;;;1.37;;
18732;SDS011;9495;51.210;2.934;2024-01-06T01:46:25;8.47;;;1.40;;
18732;SDS011;9495;51.210;2.934;2024-01-06T01:48:55;6.33;;;1.40;;
18732;SDS011;9495;51.210;2.934;2024-01-06T01:51:26;4.47;;;1.10;;
18732;SDS011;9495;51.210;2.934;2024-01-06T01:53:57;7.43;;;1.20;;
18732;SDS011;9495;51.210;2.934;2024-01-06T01:56:27;8.37;;;1.13;;
18732;SDS011;9495;51.210;2.934;2024-01-06T01:59:00;10.73;;;1.93;;
18732;SDS011;9495;51.210;2.934;2024-01-06T02:01:32;12.70;;;2.23;;
18732;SDS011;9495;51.210;2.934;2024-01-06T02:04:01;9.63;;;1.40;;
18732;SDS011;9495;51.210;2.934;2024-01-06T02:06:32;9.13;;;1.60;;
18732;SDS011;9495;51.210;2.934;2024-01-06T02:09:00;8.20;;;1.67;;
18732;SDS011;9495;51.210;2.934;2024-01-06T02:11:29;12.13;;;2.20;;
18732;SDS011;9495;51.210;2.934;2024-01-06T02:13:57;10.73;;;2.20;;
18732;SDS011;9495;51.210;2.934;2024-01-06T02:16:27;8.80;;;1.67;;
18732;SDS011;9495;51.210;2.934;2024-01-06T02:18:55;7.07;;;1.33;;
18732;SDS011;9495;51.210;2.934;2024-01-06T02:21:24;8.37;;;1.20;;
18732;SDS011;9495;51.210;2.934;2024-01-06T02:23:57;11.87;;;1.57;;
18732;SDS011;9495;51.210;2.934;2024-01-06T02:26:26;11.97;;;1.40;;
18732;SDS011;9495;51.210;2.934;2024-01-06T02:28:54;7.50;;;1.23;;
18732;SDS011;9495;51.210;2.934;2024-01-06T02:31:23;11.33;;;1.43;;
18732;SDS011;9495;51.210;2.934;2024-01-06T02:33:51;6.83;;;1.10;;
18732;SDS011;9495;51.210;2.934;2024-01-06T02:36:21;6.40;;;1.20;;
18732;SDS011;9495;51.210;2.934;2024-01-06T02:38:49;5.40;;;1.13;;
18732;SDS011;9495;51.210;2.934;2024-01-06T02:41:19;5.67;;;1.13;;
18732;SDS011;9495;51.210;2.934;2024-01-06T02:43:48;8.63;;;1.10;;
18732;SDS011;9495;51.210;2.934;2024-01-06T02:46:16;5.07;;;1.20;;
18732;SDS011;9495;51.210;2.934;2024-01-06T02:48:45;6.97;;;0.90;;
18732;SDS011;9495;51.210;2.934;2024-01-06T02:51:14;6.93;;;1.40;;
18732;SDS011;9495;51.210;2.934;2024-01-06T02:53:42;12.30;;;1.47;;
18732;SDS011;9495;51.210;2.934;2024-01-06T02:56:11;4.77;;;1.10;;
18732;SDS011;9495;51.210;2.934;2024-01-06T02:58:41;4.87;;;0.90;;
18732;SDS011;9495;51.210;2.934;2024-01-06T03:01:11;5.37;;;0.67;;
18732;SDS011;9495;51.210;2.934;2024-01-06T03:03:40;5.10;;;0.63;;
18732;SDS011;9495;51.210;2.934;2024-01-06T03:06:08;5.77;;;0.90;;
18732;SDS011;9495;51.210;2.934;2024-01-06T03:08:37;6.60;;;0.77;;
18732;SDS011;9495;51.210;2.934;2024-01-06T03:11:06;2.43;;;0.83;;
18732;SDS011;9495;51.210;2.934;2024-01-06T03:13:44;5.17;;;0.90;;
18732;SDS011;9495;51.210;2.934;2024-01-06T03:16:13;5.43;;;1.00;;
18732;SDS011;9495;51.210;2.934;2024-01-06T03:18:41;4.47;;;0.90;;
18732;SDS011;9495;51.210;2.934;2024-01-06T03:21:16;3.67;;;0.80;;
18732;SDS011;9495;51.210;2.934;2024-01-06T03:23:45;6.33;;;1.10;;
18732;SDS011;9495;51.210;2.934;2024-01-06T03:26:14;8.10;;;1.27;;
18732;SDS011;9495;51.210;2.934;2024-01-06T03:28:43;6.80;;;0.90;;
18732;SDS011;9495;51.210;2.934;2024-01-06T03:31:12;2.43;;;0.80;;
18732;SDS011;9495;51.210;2.934;2024-01-06T03:33:41;5.73;;;1.17;;
18732;SDS011;9495;51.210;2.934;2024-01-06T03:36:12;6.17;;;1.43;;
18732;SDS011;9495;51.210;2.934;2024-01-06T03:38:42;7.40;;;1.20;;
18732;SDS011;9495;51.210;2.934;2024-01-06T03:41:11;3.90;;;0.70;;
18732;SDS011;9495;51.210;2.934;2024-01-06T03:43:39;8.97;;;1.00;;
18732;SDS011;9495;51.210;2.934;2024-01-06T03:46:09;9.13;;;1.20;;
18732;SDS011;9495;51.210;2.934;2024-01-06T03:48:38;3.13;;;0.60;;
18732;SDS011;9495;51.210;2.934;2024-01-06T03:51:07;4.67;;;0.70;;
18732;SDS011;9495;51.210;2.934;2024-01-06T03:53:35;7.07;;;0.80;;
18732;SDS011;9495;51.210;2.934;2024-01-06T03:56:04;3.27;;;0.80;;
18732;SDS011;9495;51.210;2.934;2024-01-06T03:58:33;5.77;;;0.83;;
18732;SDS011;9495;51.210;2.934;2024-01-06T04:01:01;3.63;;;1.10;;
18732;SDS011;9495;51.210;2.934;2024-01-06T04:03:31;4.57;;;1.00;;
18732;SDS011;9495;51.210;2.934;2024-01-06T04:06:00;4.77;;;1.10;;
18732;SDS011;9495;51.210;2.934;2024-01-06T04:08:29;5.07;;;0.60;;
18732;SDS011;9495;51.210;2.934;2024-01-06T04:10:58;6.07;;;1.03;;
18732;SDS011;9495;51.210;2.934;2024-01-06T04:13:26;4.23;;;0.70;;
18732;SDS011;9495;51.210;2.934;2024-01-06T04:15:55;7.20;;;1.03;;
18732;SDS011;9495;51.210;2.934;2024-01-06T04:18:23;3.67;;;0.70;;
18732;SDS011;9495;51.210;2.934;2024-01-06T04:20:53;5.53;;;1.10;;
18732;SDS011;9495;51.210;2.934;2024-01-06T04:23:22;4.60;;;0.90;;
18732;SDS011;9495;51.210;2.934;2024-01-06T04:25:52;7.60;;;0.80;;
18732;SDS011;9495;51.210;2.934;2024-01-06T04:28:20;4.27;;;0.90;;
18732;SDS011;9495;51.210;2.934;2024-01-06T04:30:49;5.67;;;1.10;;
18732;SDS011;9495;51.210;2.934;2024-01-06T04:33:18;2.87;;;0.90;;
18732;SDS011;9495;51.210;2.934;2024-01-06T04:35:47;8.17;;;1.17;;
18732;SDS011;9495;51.210;2.934;2024-01-06T04:38:18;6.73;;;1.00;;
18732;SDS011;9495;51.210;2.934;2024-01-06T04:40:46;4.80;;;1.00;;
18732;SDS011;9495;51.210;2.934;2024-01-06T04:43:15;3.57;;;0.90;;
18732;SDS011;9495;51.210;2.934;2024-01-06T04:45:43;5.23;;;0.90;;
18732;SDS011;9495;51.210;2.934;2024-01-06T04:48:12;5.03;;;0.70;;
18732;SDS011;9495;51.210;2.934;2024-01-06T04:50:41;5.70;;;0.77;;
18732;SDS011;9495;51.210;2.934;2024-01-06T04:53:09;4.40;;;0.63;;
18732;SDS011;9495;51.210;2.934;2024-01-06T04:55:39;4.10;;;0.70;;
18732;SDS011;9495;51.210;2.934;2024-01-06T04:58:08;6.53;;;0.70;;
18732;SDS011;9495;51.210;2.934;2024-01-06T05:00:36;4.60;;;0.90;;
18732;SDS011;9495;51.210;2.934;2024-01-06T05:03:05;6.63;;;1.03;;
18732;SDS011;9495;51.210;2.934;2024-01-06T05:05:35;6.73;;;1.40;;
18732;SDS011;9495;51.210;2.934;2024-01-06T05:08:03;6.33;;;1.27;;
18732;SDS011;9495;51.210;2.934;2024-01-06T05:10:32;5.37;;;0.87;;
18732;SDS011;9495;51.210;2.934;2024-01-06T05:13:02;6.73;;;0.90;;
18732;SDS011;9495;51.210;2.934;2024-01-06T05:15:31;4.20;;;0.80;;
18732;SDS011;9495;51.210;2.934;2024-01-06T05:17:59;2.07;;;0.70;;
18732;SDS011;9495;51.210;2.934;2024-01-06T05:20:28;4.63;;;1.10;;
18732;SDS011;9495;51.210;2.934;2024-01-06T05:22:56;5.00;;;0.80;;
18732;SDS011;9495;51.210;2.934;2024-01-06T05:25:25;8.90;;;1.00;;
18732;SDS011;9495;51.210;2.934;2024-01-06T05:27:54;6.70;;;1.00;;
18732;SDS011;9495;51.210;2.934;2024-01-06T05:30:23;5.33;;;1.00;;
18732;SDS011;9495;51.210;2.934;2024-01-06T05:32:52;3.03;;;0.93;;
18732;SDS011;9495;51.210;2.934;2024-01-06T05:35:21;3.93;;;1.10;;
18732;SDS011;9495;51.210;2.934;2024-01-06T05:37:50;6.83;;;1.10;;
18732;SDS011;9495;51.210;2.934;2024-01-06T05:40:18;4.87;;;1.00;;
18732;SDS011;9495;51.210;2.934;2024-01-06T05:42:46;10.60;;;1.10;;
18732;SDS011;9495;51.210;2.934;2024-01-06T05:45:15;5.20;;;0.93;;
18732;SDS011;9495;51.210;2.934;2024-01-06T05:47:44;6.13;;;1.30;;
18732;SDS011;9495;51.210;2.934;2024-01-06T05:50:14;5.47;;;1.00;;
18732;SDS011;9495;51.210;2.934;2024-01-06T05:52:43;2.00;;;0.80;;
18732;SDS011;9495;51.210;2.934;2024-01-06T05:55:13;2.07;;;0.60;;
18732;SDS011;9495;51.210;2.934;2024-01-06T05:57:42;2.60;;;0.70;;
18732;SDS011;9495;51.210;2.934;2024-01-06T06:00:11;1.60;;;1.03;;
18732;SDS011;9495;51.210;2.934;2024-01-06T06:02:40;2.83;;;0.97;;
18732;SDS011;9495;51.210;2.934;2024-01-06T06:05:10;2.73;;;0.60;;
18732;SDS011;9495;51.210;2.934;2024-01-06T06:07:40;3.53;;;0.97;;
18732;SDS011;9495;51.210;2.934;2024-01-06T06:10:09;3.73;;;0.67;;
18732;SDS011;9495;51.210;2.934;2024-01-06T06:12:39;2.20;;;0.70;;
18732;SDS011;9495;51.210;2.934;2024-01-06T06:15:07;7.50;;;1.20;;
18732;SDS011;9495;51.210;2.934;2024-01-06T06:17:36;3.10;;;0.80;;
18732;SDS011;9495;51.210;2.934;2024-01-06T06:20:05;3.60;;;0.83;;
18732;SDS011;9495;51.210;2.934;2024-01-06T06:22:35;5.60;;;1.03;;
18732;SDS011;9495;51.210;2.934;2024-01-06T06:25:04;8.43;;;1.60;;
18732;SDS011;9495;51.210;2.934;2024-01-06T06:27:33;7.87;;;1.27;;
18732;SDS011;9495;51.210;2.934;2024-01-06T06:30:02;8.03;;;1.73;;
18732;SDS011;9495;51.210;2.934;2024-01-06T06:32:31;6.03;;;1.10;;
18732;SDS011;9495;51.210;2.934;2024-01-06T06:34:59;7.60;;;1.40;;
18732;SDS011;9495;51.210;2.934;2024-01-06T06:37:29;6.17;;;1.60;;
18732;SDS011;9495;51.210;2.934;2024-01-06T06:39:59;6.30;;;1.40;;
18732;SDS011;9495;51.210;2.934;2024-01-06T06:42:28;4.57;;;1.13;;
18732;SDS011;9495;51.210;2.934;2024-01-06T06:44:57;0.10;;;0.10;;
18732;SDS011;9495;51.210;2.934;2024-01-06T06:47:25;0.10;;;0.10;;
18732;SDS011;9495;51.210;2.934;2024-01-06T06:49:54;0.10;;;0.10;;
18732;SDS011;9495;51.210;2.934;2024-01-06T06:52:23;0.10;;;0.10;;
18732;SDS011;9495;51.210;2.934;2024-01-06T06:54:51;0.10;;;0.10;;
18732;SDS011;9495;51.210;2.934;2024-01-06T06:57:21;0.10;;;0.10;;
18732;SDS011;9495;51.210;2.934;2024-01-06T06:59:50;0.30;;;0.30;;
18732;SDS011;9495;51.210;2.934;2024-01-06T07:02:19;0.10;;;0.10;;
18732;SDS011;9495;51.210;2.934;2024-01-06T07:04:47;0.10;;;0.10;;
18732;SDS011;9495;51.210;2.934;2024-01-06T07:07:16;0.00;;;0.00;;
18732;SDS011;9495;51.210;2.934;2024-01-06T07:09:45;0.10;;;0.10;;
18732;SDS011;9495;51.210;2.934;2024-01-06T07:12:13;0.10;;;0.10;;
18732;SDS011;9495;51.210;2.934;2024-01-06T07:14:43;0.00;;;0.00;;
18732;SDS011;9495;51.210;2.934;2024-01-06T07:17:11;0.33;;;0.20;;
18732;SDS011;9495;51.210;2.934;2024-01-06T07:19:40;0.10;;;0.10;;
18732;SDS011;9495;51.210;2.934;2024-01-06T07:22:09;0.20;;;0.20;;
18732;SDS011;9495;51.210;2.934;2024-01-06T07:24:37;0.10;;;0.10;;
18732;SDS011;9495;51.210;2.934;2024-01-06T07:27:06;0.10;;;0.10;;
18732;SDS011;9495;51.210;2.934;2024-01-06T07:29:34;0.00;;;0.00;;
18732;SDS011;9495;51.210;2.934;2024-01-06T07:32:05;0.10;;;0.10;;
18732;SDS011;9495;51.210;2.934;2024-01-06T07:34:33;0.10;;;0.10;;
18732;SDS011;9495;51.210;2.934;2024-01-06T07:37:02;0.00;;;0.00;;
18732;SDS011;9495;51.210;2.934;2024-01-06T07:39:32;0.10;;;0.10;;
18732;SDS011;9495;51.210;2.934;2024-01-06T07:42:01;0.30;;;0.30;;
18732;SDS011;9495;51.210;2.934;2024-01-06T07:44:30;0.10;;;0.10;;
18732;SDS011;9495;51.210;2.934;2024-01-06T07:46:58;0.10;;;0.10;;
18732;SDS011;9495;51.210;2.934;2024-01-06T07:49:30;0.00;;;0.00;;
18732;SDS011;9495;51.210;2.934;2024-01-06T07:51:59;0.10;;;0.10;;
18732;SDS011;9495;51.210;2.934;2024-01-06T07:54:28;0.10;;;0.10;;
18732;SDS011;9495;51.210;2.934;2024-01-06T07:56:57;0.10;;;0.10;;
18732;SDS011;9495;51.210;2.934;2024-01-06T07:59:26;0.10;;;0.10;;
18732;SDS011;9495;51.210;2.934;2024-01-06T08:01:54;0.10;;;0.10;;
18732;SDS011;9495;51.210;2.934;2024-01-06T08:04:24;0.10;;;0.10;;
18732;SDS011;9495;51.210;2.934;2024-01-06T08:06:54;0.10;;;0.10;;
18732;SDS011;9495;51.210;2.934;2024-01-06T08:09:22;0.10;;;0.10;;
18732;SDS011;9495;51.210;2.934;2024-01-06T08:11:51;0.10;;;0.10;;
18732;SDS011;9495;51.210;2.934;2024-01-06T08:14:19;0.10;;;0.10;;
18732;SDS011;9495;51.210;2.934;2024-01-06T08:16:48;0.10;;;0.10;;
18732;SDS011;9495;51.210;2.934;2024-01-06T08:19:16;0.10;;;0.10;;
18732;SDS011;9495;51.210;2.934;2024-01-06T08:21:45;0.10;;;0.10;;
18732;SDS011;9495;51.210;2.934;2024-01-06T08:24:15;0.10;;;0.10;;
18732;SDS011;9495;51.210;2.934;2024-01-06T08:26:44;0.10;;;0.10;;
18732;SDS011;9495;51.210;2.934;2024-01-06T08:29:13;0.10;;;0.10;;
18732;SDS011;9495;51.210;2.934;2024-01-06T08:31:43;0.10;;;0.10;;
18732;SDS011;9495;51.210;2.934;2024-01-06T08:34:11;0.10;;;0.10;;
18732;SDS011;9495;51.210;2.934;2024-01-06T08:36:41;0.10;;;0.10;;
18732;SDS011;9495;51.210;2.934;2024-01-06T08:39:10;0.10;;;0.10;;
18732;SDS011;9495;51.210;2.934;2024-01-06T08:41:40;0.10;;;0.10;;
18732;SDS011;9495;51.210;2.934;2024-01-06T08:44:08;0.10;;;0.10;;
18732;SDS011;9495;51.210;2.934;2024-01-06T08:46:37;0.07;;;0.07;;
18732;SDS011;9495;51.210;2.934;2024-01-06T08:49:06;0.10;;;0.10;;
18732;SDS011;9495;51.210;2.934;2024-01-06T08:51:34;0.10;;;0.10;;
18732;SDS011;9495;51.210;2.934;2024-01-06T08:54:03;0.10;;;0.10;;
18732;SDS011;9495;51.210;2.934;2024-01-06T08:56:33;0.10;;;0.10;;
18732;SDS011;9495;51.210;2.934;2024-01-06T08:59:02;0.10;;;0.10;;
18732;SDS011;9495;51.210;2.934;2024-01-06T09:01:32;0.10;;;0.10;;
18732;SDS011;9495;51.210;2.934;2024-01-06T09:04:02;0.07;;;0.07;;
18732;SDS011;9495;51.210;2.934;2024-01-06T09:06:33;0.27;;;0.27;;
18732;SDS011;9495;51.210;2.934;2024-01-06T09:09:02;0.10;;;0.10;;
18732;SDS011;9495;51.210;2.934;2024-01-06T09:11:31;0.00;;;0.00;;
18732;SDS011;9495;51.210;2.934;2024-01-06T09:14:00;0.10;;;0.10;;
18732;SDS011;9495;51.210;2.934;2024-01-06T09:16:30;0.10;;;0.10;;
18732;SDS011;9495;51.210;2.934;2024-01-06T09:18:59;0.10;;;0.10;;
18732;SDS011;9495;51.210;2.934;2024-01-06T09:21:27;0.03;;;0.03;;
18732;SDS011;9495;51.210;2.934;2024-01-06T09:23:56;0.30;;;0.30;;
18732;SDS011;9495;51.210;2.934;2024-01-06T09:26:25;0.10;;;0.10;;
18732;SDS011;9495;51.210;2.934;2024-01-06T09:28:53;0.10;;;0.10;;
18732;SDS011;9495;51.210;2.934;2024-01-06T09:31:23;0.10;;;0.10;;
18732;SDS011;9495;51.210;2.934;2024-01-06T09:33:52;0.03;;;0.03;;
18732;SDS011;9495;51.210;2.934;2024-01-06T09:36:21;0.10;;;0.10;;
18732;SDS011;9495;51.210;2.934;2024-01-06T09:38:49;0.00;;;0.00;;
18732;SDS011;9495;51.210;2.934;2024-01-06T09:41:18;0.10;;;0.10;;
18732;SDS011;9495;51.210;2.934;2024-01-06T09:43:48;1.93;;;0.47;;
18732;SDS011;9495;51.210;2.934;2024-01-06T09:46:17;0.10;;;0.10;;
18732;SDS011;9495;51.210;2.934;2024-01-06T09:48:52;0.10;;;0.10;;
18732;SDS011;9495;51.210;2.934;2024-01-06T09:51:22;0.20;;;0.20;;
18732;SDS011;9495;51.210;2.934;2024-01-06T09:53:55;0.87;;;0.67;;
18732;SDS011;9495;51.210;2.934;2024-01-06T09:56:26;0.10;;;0.10;;
18732;SDS011;9495;51.210;2.934;2024-01-06T09:58:55;0.10;;;0.10;;
18732;SDS011;9495;51.210;2.934;2024-01-06T10:01:25;0.10;;;0.10;;
18732;SDS011;9495;51.210;2.934;2024-01-06T10:03:54;0.10;;;0.10;;
18732;SDS011;9495;51.210;2.934;2024-01-06T10:06:23;0.10;;;0.10;;
18732;SDS011;9495;51.210;2.934;2024-01-06T10:08:52;0.10;;;0.10;;
18732;SDS011;9495;51.210;2.934;2024-01-06T10:11:22;0.27;;;0.20;;
18732;SDS011;9495;51.210;2.934;2024-01-06T10:13:50;0.10;;;0.10;;
18732;SDS011;9495;51.210;2.934;2024-01-06T10:16:20;0.10;;;0.10;;
18732;SDS011;9495;51.210;2.934;2024-01-06T10:18:50;0.10;;;0.10;;
18732;SDS011;9495;51.210;2.934;2024-01-06T10:21:20;0.13;;;0.13;;
18732;SDS011;9495;51.210;2.934;2024-01-06T10:23:50;0.00;;;0.00;;
18732;SDS011;9495;51.210;2.934;2024-01-06T10:26:18;0.10;;;0.10;;
18732;SDS011;9495;51.210;2.934;2024-01-06T10:28:47;0.10;;;0.10;;
18732;SDS011;9495;51.210;2.934;2024-01-06T10:31:17;0.10;;;0.10;;
18732;SDS011;9495;51.210;2.934;2024-01-06T10:33:46;0.10;;;0.10;;
18732;SDS011;9495;51.210;2.934;2024-01-06T10:36:17;0.10;;;0.10;;
18732;SDS011;9495;51.210;2.934;2024-01-06T10:38:45;0.10;;;0.10;;
18732;SDS011;9495;51.210;2.934;2024-01-06T10:41:14;0.10;;;0.10;;
18732;SDS011;9495;51.210;2.934;2024-01-06T10:43:43;0.10;;;0.10;;
18732;SDS011;9495;51.210;2.934;2024-01-06T10:46:13;0.10;;;0.10;;
18732;SDS011;9495;51.210;2.934;2024-01-06T10:48:43;0.10;;;0.10;;
18732;SDS011;9495;51.210;2.934;2024-01-06T10:51:13;0.10;;;0.10;;
18732;SDS011;9495;51.210;2.934;2024-01-06T10:53:44;0.10;;;0.10;;
18732;SDS011;9495;51.210;2.934;2024-01-06T10:56:12;0.07;;;0.07;;
18732;SDS011;9495;51.210;2.934;2024-01-06T10:58:43;0.10;;;0.10;;
18732;SDS011;9495;51.210;2.934;2024-01-06T11:01:15;0.10;;;0.10;;
18732;SDS011;9495;51.210;2.934;2024-01-06T11:03:51;0.10;;;0.10;;
18732;SDS011;9495;51.210;2.934;2024-01-06T11:06:21;0.20;;;0.20;;
18732;SDS011;9495;51.210;2.934;2024-01-06T11:08:52;0.10;;;0.10;;
18732;SDS011;9495;51.210;2.934;2024-01-06T11:11:27;0.10;;;0.10;;
18732;SDS011;9495;51.210;2.934;2024-01-06T11:16:46;0.10;;;0.10;;
18732;SDS011;9495;51.210;2.934;2024-01-06T11:22:18;0.20;;;0.20;;
18732;SDS011;9495;51.210;2.934;2024-01-06T11:24:49;0.10;;;0.10;;
18732;SDS011;9495;51.210;2.934;2024-01-06T11:27:20;0.10;;;0.10;;
18732;SDS011;9495;51.210;2.934;2024-01-06T11:29:50;0.10;;;0.10;;
18732;SDS011;9495;51.210;2.934;2024-01-06T11:32:24;0.10;;;0.10;;
18732;SDS011;9495;51.210;2.934;2024-01-06T11:34:55;0.17;;;0.17;;
18732;SDS011;9495;51.210;2.934;2024-01-06T11:37:34;0.10;;;0.10;;
18732;SDS011;9495;51.210;2.934;2024-01-06T11:40:07;0.10;;;0.10;;
18732;SDS011;9495;51.210;2.934;2024-01-06T11:42:40;0.10;;;0.10;;
18732;SDS011;9495;51.210;2.934;2024-01-06T11:45:09;0.13;;;0.13;;
18732;SDS011;9495;51.210;2.934;2024-01-06T11:47:38;0.10;;;0.10;;
18732;SDS011;9495;51.210;2.934;2024-01-06T11:50:08;0.10;;;0.10;;
18732;SDS011;9495;51.210;2.934;2024-01-06T11:52:37;0.10;;;0.10;;
18732;SDS011;9495;51.210;2.934;2024-01-06T11:55:08;0.10;;;0.10;;
18732;SDS011;9495;51.210;2.934;2024-01-06T11:57:37;0.10;;;0.10;;
18732;SDS011;9495;51.210;2.934;2024-01-06T12:00:06;0.10;;;0.10;;
18732;SDS011;9495;51.210;2.934;2024-01-06T12:02:35;0.10;;;0.10;;
18732;SDS011;9495;51.210;2.934;2024-01-06T12:05:03;0.50;;;0.20;;
18732;SDS011;9495;51.210;2.934;2024-01-06T12:07:32;0.10;;;0.10;;
18732;SDS011;9495;51.210;2.934;2024-01-06T12:10:02;0.10;;;0.10;;
18732;SDS011;9495;51.210;2.934;2024-01-06T12:12:32;0.10;;;0.10;;
18732;SDS011;9495;51.210;2.934;2024-01-06T12:15:01;7.50;;;1.77;;
18732;SDS011;9495;51.210;2.934;2024-01-06T12:17:30;7.57;;;1.47;;
18732;SDS011;9495;51.210;2.934;2024-01-06T12:19:59;6.50;;;1.40;;
18732;SDS011;9495;51.210;2.934;2024-01-06T12:22:28;5.33;;;1.40;;
18732;SDS011;9495;51.210;2.934;2024-01-06T12:24:58;6.47;;;2.00;;
18732;SDS011;9495;51.210;2.934;2024-01-06T12:27:26;3.80;;;1.50;;
18732;SDS011;9495;51.210;2.934;2024-01-06T12:29:57;3.90;;;1.13;;
18732;SDS011;9495;51.210;2.934;2024-01-06T12:32:25;3.40;;;0.83;;
18732;SDS011;9495;51.210;2.934;2024-01-06T12:34:54;3.43;;;0.80;;
18732;SDS011;9495;51.210;2.934;2024-01-06T12:37:23;4.13;;;1.60;;
18732;SDS011;9495;51.210;2.934;2024-01-06T12:39:52;4.57;;;1.40;;
18732;SDS011;9495;51.210;2.934;2024-01-06T12:42:20;6.03;;;2.00;;
18732;SDS011;9495;51.210;2.934;2024-01-06T12:44:50;5.30;;;1.30;;
18732;SDS011;9495;51.210;2.934;2024-01-06T12:47:20;5.27;;;1.20;;
18732;SDS011;9495;51.210;2.934;2024-01-06T12:49:49;2.07;;;1.20;;
18732;SDS011;9495;51.210;2.934;2024-01-06T12:52:17;6.97;;;1.57;;
18732;SDS011;9495;51.210;2.934;2024-01-06T12:54:46;2.90;;;1.07;;
18732;SDS011;9495;51.210;2.934;2024-01-06T12:57:15;0.10;;;0.10;;
18732;SDS011;9495;51.210;2.934;2024-01-06T12:59:43;0.10;;;0.10;;
18732;SDS011;9495;51.210;2.934;2024-01-06T13:02:12;0.10;;;0.10;;
18732;SDS011;9495;51.210;2.934;2024-01-06T13:04:41;0.20;;;0.20;;
18732;SDS011;9495;51.210;2.934;2024-01-06T13:07:10;0.10;;;0.10;;
18732;SDS011;9495;51.210;2.934;2024-01-06T13:09:39;0.10;;;0.10;;
18732;SDS011;9495;51.210;2.934;2024-01-06T13:12:08;0.10;;;0.10;;
18732;SDS011;9495;51.210;2.934;2024-01-06T13:14:37;0.10;;;0.10;;
18732;SDS011;9495;51.210;2.934;2024-01-06T13:17:05;0.10;;;0.10;;
18732;SDS011;9495;51.210;2.934;2024-01-06T13:19:35;0.10;;;0.10;;
18732;SDS011;9495;51.210;2.934;2024-01-06T13:22:05;0.10;;;0.10;;
18732;SDS011;9495;51.210;2.934;2024-01-06T13:24:34;0.10;;;0.10;;
18732;SDS011;9495;51.210;2.934;2024-01-06T13:27:03;0.10;;;0.10;;
18732;SDS011;9495;51.210;2.934;2024-01-06T13:29:31;0.10;;;0.10;;
18732;SDS011;9495;51.210;2.934;2024-01-06T13:32:00;0.10;;;0.10;;
18732;SDS011;9495;51.210;2.934;2024-01-06T13:34:29;0.10;;;0.10;;
18732;SDS011;9495;51.210;2.934;2024-01-06T13:36:58;0.10;;;0.10;;
18732;SDS011;9495;51.210;2.934;2024-01-06T13:39:27;0.10;;;0.10;;
18732;SDS011;9495;51.210;2.934;2024-01-06T13:41:57;0.10;;;0.10;;
18732;SDS011;9495;51.210;2.934;2024-01-06T13:44:25;0.10;;;0.10;;
18732;SDS011;9495;51.210;2.934;2024-01-06T13:46:54;2.13;;;0.53;;
18732;SDS011;9495;51.210;2.934;2024-01-06T13:49:23;3.10;;;0.53;;
18732;SDS011;9495;51.210;2.934;2024-01-06T13:51:51;0.50;;;0.20;;
18732;SDS011;9495;51.210;2.934;2024-01-06T13:54:20;0.10;;;0.10;;
18732;SDS011;9495;51.210;2.934;2024-01-06T13:56:50;0.10;;;0.10;;
18732;SDS011;9495;51.210;2.934;2024-01-06T13:59:19;0.10;;;0.10;;
18732;SDS011;9495;51.210;2.934;2024-01-06T14:01:48;0.10;;;0.10;;
18732;SDS011;9495;51.210;2.934;2024-01-06T14:04:16;0.10;;;0.10;;
18732;SDS011;9495;51.210;2.934;2024-01-06T14:06:45;0.10;;;0.10;;
18732;SDS011;9495;51.210;2.934;2024-01-06T14:09:14;0.20;;;0.20;;
18732;SDS011;9495;51.210;2.934;2024-01-06T14:11:43;0.10;;;0.10;;
18732;SDS011;9495;51.210;2.934;2024-01-06T14:14:13;0.10;;;0.10;;
18732;SDS011;9495;51.210;2.934;2024-01-06T14:16:42;0.23;;;0.23;;
18732;SDS011;9495;51.210;2.934;2024-01-06T14:19:13;0.10;;;0.10;;
18732;SDS011;9495;51.210;2.934;2024-01-06T14:21:42;0.10;;;0.10;;
18732;SDS011;9495;51.210;2.934;2024-01-06T14:24:10;0.10;;;0.10;;
18732;SDS011;9495;51.210;2.934;2024-01-06T14:26:39;0.10;;;0.10;;
18732;SDS011;9495;51.210;2.934;2024-01-06T14:29:09;0.10;;;0.10;;
18732;SDS011;9495;51.210;2.934;2024-01-06T14:31:39;0.60;;;0.50;;
18732;SDS011;9495;51.210;2.934;2024-01-06T14:34:08;0.10;;;0.10;;
18732;SDS011;9495;51.210;2.934;2024-01-06T14:36:37;0.10;;;0.10;;
18732;SDS011;9495;51.210;2.934;2024-01-06T14:39:06;0.10;;;0.10;;
18732;SDS011;9495;51.210;2.934;2024-01-06T14:41:35;0.10;;;0.10;;
18732;SDS011;9495;51.210;2.934;2024-01-06T14:44:04;0.13;;;0.13;;
18732;SDS011;9495;51.210;2.934;2024-01-06T14:46:32;0.10;;;0.10;;
18732;SDS011;9495;51.210;2.934;2024-01-06T14:49:03;0.10;;;0.10;;
18732;SDS011;9495;51.210;2.934;2024-01-06T14:51:31;0.10;;;0.10;;
18732;SDS011;9495;51.210;2.934;2024-01-06T14:53:59;0.10;;;0.10;;
18732;SDS011;9495;51.210;2.934;2024-01-06T14:56:28;0.63;;;0.63;;
18732;SDS011;9495;51.210;2.934;2024-01-06T14:58:56;2.17;;;0.63;;
18732;SDS011;9495;51.210;2.934;2024-01-06T15:01:25;0.10;;;0.10;;
18732;SDS011;9495;51.210;2.934;2024-01-06T15:03:54;15.10;;;2.33;;
18732;SDS011;9495;51.210;2.934;2024-01-06T15:06:24;7.60;;;2.10;;
18732;SDS011;9495;51.210;2.934;2024-01-06T15:08:52;10.27;;;2.30;;
18732;SDS011;9495;51.210;2.934;2024-01-06T15:11:20;10.60;;;2.50;;
18732;SDS011;9495;51.210;2.934;2024-01-06T15:13:49;11.27;;;2.90;;
18732;SDS011;9495;51.210;2.934;2024-01-06T15:16:18;10.20;;;3.00;;
18732;SDS011;9495;51.210;2.934;2024-01-06T15:18:46;12.93;;;3.67;;